createdAt,value
2018-12-06T00:00:17.364Z,3.7
2018-12-06T00:05:17.307Z,6.5
2018-12-06T00:10:17.673Z,6.7
2018-12-06T00:15:17.544Z,2.5
2018-12-06T00:20:17.879Z,5.8
2018-12-06T00:25:17.211Z,14.3
2018-12-06T00:30:17.367Z,2.4
2018-12-06T00:35:17.274Z,5
2018-12-06T00:40:17.431Z,6.5
2018-12-06T00:45:17.415Z,8.3
2018-12-06T00:50:17.388Z,11.8
2018-12-06T00:55:17.376Z,8.9
2018-12-06T01:00:17.352Z,8.9
2018-12-06T01:05:17.423Z,8.7
2018-12-06T01:10:17.644Z,9.9
2018-12-06T01:15:17.567Z,9.9
2018-12-06T01:20:17.795Z,8.3
2018-12-06T01:25:16.707Z,8
2018-12-06T01:30:17.683Z,9.7
2018-12-06T01:35:22.634Z,10
2018-12-06T01:40:17.033Z,8.2
2018-12-06T01:45:16.982Z,9.5
2018-12-06T01:50:16.863Z,9
2018-12-06T01:55:16.935Z,8.8
2018-12-06T02:00:16.887Z,7.4
2018-12-06T02:05:16.967Z,4.7
2018-12-06T02:10:17.083Z,8.3
2018-12-06T02:15:17.087Z,12.4
2018-12-06T02:20:17.596Z,6.1
2018-12-06T02:25:17.559Z,22.1
2018-12-06T02:30:17.465Z,7.8
2018-12-06T02:35:17.455Z,5.1
2018-12-06T02:40:17.692Z,7.8
2018-12-06T02:45:17.784Z,9.2
2018-12-06T02:50:16.792Z,8.7
2018-12-06T02:55:16.908Z,9.5
2018-12-06T03:00:16.904Z,9.8
2018-12-06T03:05:16.787Z,9.8
2018-12-06T03:10:17.027Z,10.6
2018-12-06T03:15:17.395Z,9.6
2018-12-06T03:20:17.640Z,10.7
2018-12-06T03:25:17.646Z,11.1
2018-12-06T03:30:17.740Z,10.9
2018-12-06T03:35:16.760Z,10.2
2018-12-06T03:40:16.956Z,8.6
2018-12-06T03:45:17.060Z,11.1
2018-12-06T03:50:17.400Z,8
2018-12-06T03:55:17.524Z,11.3
2018-12-06T04:00:17.495Z,11.1
2018-12-06T04:05:17.455Z,10.8
2018-12-06T04:10:17.623Z,10.9
2018-12-06T04:15:17.551Z,10.6
2018-12-06T04:20:17.759Z,6.4
2018-12-06T04:25:16.885Z,8.7
2018-12-06T04:30:16.796Z,12.2
2018-12-06T04:35:16.761Z,9.6
2018-12-06T04:40:17.195Z,10.9
2018-12-06T04:45:17.456Z,9.1
2018-12-06T04:50:17.596Z,9.9
2018-12-06T04:55:17.536Z,5.4
2018-12-06T05:00:17.452Z,9.5
2018-12-06T05:05:17.639Z,10.9
2018-12-06T05:10:16.792Z,7.4
2018-12-06T05:15:16.801Z,11.7
2018-12-06T05:20:16.948Z,9.3
2018-12-06T05:25:17.184Z,14.9
2018-12-06T05:30:17.369Z,7.3
2018-12-06T05:35:17.356Z,12
2018-12-06T05:40:17.735Z,12.7
2018-12-06T05:45:17.731Z,14.4
2018-12-06T05:50:17.844Z,15.9
2018-12-06T05:55:16.856Z,16.4
2018-12-06T06:00:16.800Z,15.4
2018-12-06T06:05:16.972Z,14
2018-12-06T06:10:17.252Z,15.5
2018-12-06T06:15:17.189Z,16
2018-12-06T06:20:17.386Z,16.6
2018-12-06T06:25:17.639Z,10
2018-12-06T06:30:17.859Z,16.3
2018-12-06T06:35:16.712Z,14.6
2018-12-06T06:40:17.035Z,16.5
2018-12-06T06:45:16.921Z,14.7
2018-12-06T06:50:16.999Z,15.4
2018-12-06T06:55:16.979Z,14.6
2018-12-06T07:00:17.456Z,7.6
2018-12-06T07:05:17.674Z,16.4
2018-12-06T07:10:16.868Z,17
2018-12-06T07:15:16.967Z,14.9
2018-12-06T07:20:17.179Z,19.5
2018-12-06T07:25:17.435Z,20.3
2018-12-06T07:30:17.434Z,13.9
2018-12-06T07:35:17.373Z,21.2
2018-12-06T07:40:17.788Z,23.9
2018-12-06T07:45:16.995Z,20.4
2018-12-06T07:50:17.082Z,26.3
2018-12-06T07:55:17.047Z,24.4
2018-12-06T08:00:17.023Z,30.3
2018-12-06T08:05:17.011Z,26.5
2018-12-06T08:10:17.275Z,15.7
2018-12-06T08:15:17.267Z,29.6
2018-12-06T08:20:17.295Z,22.1
2018-12-06T08:25:17.501Z,33.2
2018-12-06T08:30:17.703Z,31
2018-12-06T08:35:16.663Z,16.9
2018-12-06T08:40:17.047Z,33.2
2018-12-06T08:45:17.271Z,21.8
2018-12-06T08:50:17.249Z,28.6
2018-12-06T08:55:17.255Z,31.5
2018-12-06T09:00:17.343Z,24.4
2018-12-06T09:05:17.350Z,24.7
2018-12-06T09:10:17.768Z,32.2
2018-12-06T09:15:16.867Z,16.4
2018-12-06T09:20:17.463Z,36.8
2018-12-06T09:25:20.947Z,34.6
2018-12-06T09:30:17.564Z,59
2018-12-06T09:35:17.922Z,38
2018-12-06T09:40:17.036Z,30.5
2018-12-06T09:45:17.292Z,35.3
2018-12-06T09:50:17.504Z,30.5
2018-12-06T09:55:17.668Z,50.2
2018-12-06T10:00:17.583Z,35.1
2018-12-06T10:05:18.594Z,40.1
2018-12-06T10:10:17.306Z,39.5
2018-12-06T10:15:17.144Z,47.1
2018-12-06T10:20:17.195Z,30.2
2018-12-06T10:25:17.133Z,37.5
2018-12-06T10:30:17.284Z,41.7
2018-12-06T10:35:17.371Z,45.1
2018-12-06T10:40:17.635Z,45.4
2018-12-06T10:45:17.695Z,38.2
2018-12-06T10:50:17.607Z,48.5
2018-12-06T10:55:17.724Z,45.4
2018-12-06T11:00:17.607Z,37
2018-12-06T11:05:17.553Z,44.6
2018-12-06T11:10:16.859Z,43.7
2018-12-06T11:15:16.844Z,46.7
2018-12-06T11:20:17.208Z,47.2
2018-12-06T11:25:17.171Z,48.8
2018-12-06T11:30:17.071Z,39.5
2018-12-06T11:35:17.255Z,52.1
2018-12-06T11:40:17.435Z,28.4
2018-12-06T11:45:17.328Z,35.4
2018-12-06T11:50:17.327Z,52
2018-12-06T11:55:17.632Z,53
2018-12-06T12:00:17.823Z,32.9
2018-12-06T12:05:16.961Z,55.6
2018-12-06T12:10:17.219Z,54
2018-12-06T12:15:17.155Z,32.4
2018-12-06T12:20:17.460Z,53.1
2018-12-06T12:25:17.386Z,51.8
2018-12-06T12:30:22.271Z,33.1
2018-12-06T12:35:18.787Z,51.3
2018-12-06T12:40:17.643Z,48.6
2018-12-06T12:45:17.723Z,58.5
2018-12-06T12:50:17.687Z,55.9
2018-12-06T12:55:16.939Z,48.2
2018-12-06T13:00:16.918Z,51.8
2018-12-06T13:05:17.267Z,32.3
2018-12-06T13:10:17.456Z,55.5
2018-12-06T13:15:17.339Z,62
2018-12-06T13:20:17.331Z,52.2
2018-12-06T13:25:17.358Z,43.8
2018-12-06T13:30:17.279Z,45.8
2018-12-06T13:35:17.435Z,55.8
2018-12-06T13:40:17.728Z,56.3
2018-12-06T13:45:16.978Z,47
2018-12-06T13:50:17.043Z,34.3
2018-12-06T13:55:17.008Z,63.9
2018-12-06T14:00:17.216Z,41.2
2018-12-06T14:05:17.275Z,53.4
2018-12-06T14:10:17.648Z,67.2
2018-12-06T14:15:17.787Z,41.2
2018-12-06T14:20:16.936Z,71.3
2018-12-06T14:25:16.902Z,42
2018-12-06T14:30:17.084Z,70.6
2018-12-06T14:35:17.328Z,74.4
2018-12-06T14:40:17.419Z,68.8
2018-12-06T14:45:18.790Z,62.7
2018-12-06T14:50:16.955Z,41
2018-12-06T14:55:17.411Z,81.2
2018-12-06T15:00:17.284Z,46
2018-12-06T15:05:17.171Z,60.7
2018-12-06T15:10:17.276Z,56.5
2018-12-06T15:15:17.222Z,78.8
2018-12-06T15:20:17.543Z,94.8
2018-12-06T15:25:17.504Z,76.5
2018-12-06T15:30:17.655Z,84.9
2018-12-06T15:35:17.704Z,68.9
2018-12-06T15:40:16.793Z,46.8
2018-12-06T15:45:16.935Z,77.4
2018-12-06T15:50:16.823Z,75.7
2018-12-06T15:55:16.828Z,73.9
2018-12-06T16:00:17.011Z,75
2018-12-06T16:05:16.932Z,87.4
2018-12-06T16:10:17.087Z,73.9
2018-12-06T16:15:17.260Z,59.2
2018-12-06T16:20:17.303Z,67.4
2018-12-06T16:25:17.283Z,41.7
2018-12-06T16:30:17.431Z,61.3
2018-12-06T16:35:17.592Z,68.4
2018-12-06T16:40:16.827Z,56.5
2018-12-06T16:45:17.611Z,55.1
2018-12-06T16:50:17.628Z,48.6
2018-12-06T16:55:17.699Z,60.1
2018-12-06T17:00:17.815Z,52.9
2018-12-06T17:05:16.708Z,41.9
2018-12-06T17:10:16.903Z,55.4
2018-12-06T17:15:16.788Z,40.6
2018-12-06T17:20:17.000Z,53.8
2018-12-06T17:25:17.055Z,24.4
2018-12-06T17:30:17.259Z,49.8
2018-12-06T17:35:17.291Z,51.5
2018-12-06T17:40:17.757Z,42.4
2018-12-06T17:45:16.859Z,60.7
2018-12-06T17:50:16.944Z,43.2
2018-12-06T17:55:16.891Z,34.9
2018-12-06T18:00:16.976Z,48.6
2018-12-06T18:05:16.835Z,46.2
2018-12-06T18:10:17.226Z,48
2018-12-06T18:15:17.123Z,39.5
2018-12-06T18:20:17.715Z,19.1
2018-12-06T18:25:18.088Z,63.9
2018-12-06T18:30:17.159Z,45.1
2018-12-06T18:35:17.123Z,67.1
2018-12-06T18:40:17.412Z,49.1
2018-12-06T18:45:17.335Z,53.4
2018-12-06T18:50:17.235Z,48.5
2018-12-06T18:55:17.216Z,37.7
2018-12-06T19:00:17.396Z,51.7
2018-12-06T19:05:17.438Z,42.7
2018-12-06T19:10:17.806Z,58
2018-12-06T19:15:16.986Z,48.7
2018-12-06T19:20:17.104Z,47.4
2018-12-06T19:25:17.289Z,50.7
2018-12-06T19:30:17.292Z,57.1
2018-12-06T19:35:17.335Z,46
2018-12-06T19:40:17.552Z,69.8
2018-12-06T19:45:17.439Z,65.9
2018-12-06T19:50:17.505Z,60.9
2018-12-06T19:55:17.427Z,71.6
2018-12-06T20:00:17.648Z,61.1
2018-12-06T20:05:17.604Z,70.1
2018-12-06T20:10:16.757Z,74.3
2018-12-06T20:15:16.705Z,77.8
2018-12-06T20:20:23.269Z,50.1
2018-12-06T20:25:17.059Z,69
2018-12-06T20:30:17.142Z,84
2018-12-06T20:35:17.244Z,60.7
2018-12-06T20:40:17.400Z,66.3
2018-12-06T20:45:17.511Z,87
2018-12-06T20:50:17.390Z,46
2018-12-06T20:55:17.499Z,81.8
2018-12-06T21:00:17.676Z,43.7
2018-12-06T21:05:17.795Z,84.4
2018-12-06T21:10:16.929Z,50.5
2018-12-06T21:15:17.347Z,78
2018-12-06T21:20:17.515Z,75.3
2018-12-06T21:25:17.547Z,67.9
2018-12-06T21:30:17.489Z,42.2
2018-12-06T21:35:17.455Z,82.4
2018-12-06T21:40:17.607Z,77.1
2018-12-06T21:45:17.715Z,39.3
2018-12-06T21:50:17.791Z,75.5
2018-12-06T21:55:16.696Z,75.9
2018-12-06T22:00:17.607Z,71
2018-12-06T22:05:17.599Z,76.6
2018-12-06T22:10:17.200Z,54.6
2018-12-06T22:15:17.266Z,65.7
2018-12-06T22:20:17.685Z,75
2018-12-06T22:25:17.943Z,74.2
2018-12-06T22:30:17.108Z,70
2018-12-06T22:35:17.163Z,84.8
2018-12-06T22:40:17.512Z,65
2018-12-06T22:45:17.588Z,67.5
2018-12-06T22:50:17.851Z,82
2018-12-06T22:55:16.891Z,60.8
2018-12-06T23:00:16.883Z,75
2018-12-06T23:05:17.087Z,75.2
2018-12-06T23:10:17.311Z,60.5
2018-12-06T23:15:17.231Z,71.4
2018-12-06T23:20:17.615Z,72
2018-12-06T23:25:17.499Z,77.3
2018-12-06T23:30:17.564Z,45.7
2018-12-06T23:35:17.575Z,94.1
2018-12-06T23:40:16.554Z,92.5
2018-12-06T23:45:17.573Z,70.5
2018-12-06T23:50:17.644Z,40
2018-12-06T23:55:17.450Z,74.2
